createdAt,value
2023-04-21T00:00:51.815Z,13.73
2023-04-21T00:03:21.102Z,14.50
2023-04-21T00:05:48.660Z,17.70
2023-04-21T00:08:15.711Z,15.50
2023-04-21T00:10:42.567Z,16.33
2023-04-21T00:13:09.186Z,15.38
2023-04-21T00:15:36.059Z,15.95
2023-04-21T00:18:03.718Z,16.77
2023-04-21T00:20:31.692Z,17.50
2023-04-21T00:22:59.130Z,18.63
2023-04-21T00:25:26.007Z,16.38
2023-04-21T00:27:52.646Z,17.35
2023-04-21T00:30:19.209Z,16.27
2023-04-21T00:32:45.748Z,21.35
2023-04-21T00:35:12.337Z,19.30
2023-04-21T00:37:40.241Z,22.83
2023-04-21T00:40:10.062Z,20.85
2023-04-21T00:42:36.681Z,20.13
2023-04-21T00:45:04.765Z,21.05
2023-04-21T00:47:31.594Z,19.77
2023-04-21T00:49:59.010Z,19.50
2023-04-21T00:52:26.610Z,18.77
2023-04-21T00:54:54.027Z,20.75
2023-04-21T00:57:20.926Z,21.25
2023-04-21T00:59:47.995Z,21.90
2023-04-21T01:02:16.658Z,22.13
2023-04-21T01:04:45.678Z,23.92
2023-04-21T01:07:12.784Z,23.88
2023-04-21T01:09:39.360Z,20.13
2023-04-21T01:12:09.930Z,22.60
2023-04-21T01:14:38.156Z,24.02
2023-04-21T01:17:08.082Z,22.02
2023-04-21T01:19:41.943Z,25.13
2023-04-21T01:22:12.804Z,22.52
2023-04-21T01:24:45.429Z,22.98
2023-04-21T01:27:14.877Z,22.67
2023-04-21T01:29:43.613Z,23.65
2023-04-21T01:32:12.658Z,24.58
2023-04-21T01:34:40.874Z,22.10
2023-04-21T01:37:09.506Z,26.98
2023-04-21T01:39:43.957Z,23.98
2023-04-21T01:42:11.061Z,23.25
2023-04-21T01:44:38.575Z,24.95
2023-04-21T01:47:05.266Z,25.77
2023-04-21T01:49:32.280Z,26.77
2023-04-21T01:51:58.833Z,30.52
2023-04-21T01:54:25.543Z,27.88
2023-04-21T01:56:52.113Z,26.33
2023-04-21T01:59:18.953Z,27.70
2023-04-21T02:01:45.794Z,25.60
2023-04-21T02:04:12.415Z,26.77
2023-04-21T02:06:39.009Z,31.33
2023-04-21T02:09:05.558Z,27.73
2023-04-21T02:11:32.130Z,28.73
2023-04-21T02:13:58.664Z,27.70
2023-04-21T02:16:28.537Z,32.05
2023-04-21T02:19:06.210Z,28.52
2023-04-21T02:21:32.763Z,30.30
2023-04-21T02:23:59.377Z,28.75
2023-04-21T02:26:26.023Z,28.52
2023-04-21T02:28:52.528Z,31.02
2023-04-21T02:31:19.093Z,33.83
2023-04-21T02:33:46.079Z,28.15
2023-04-21T02:36:13.171Z,30.23
2023-04-21T02:38:39.862Z,33.50
2023-04-21T02:41:06.399Z,31.90
2023-04-21T02:43:32.885Z,36.13
2023-04-21T02:45:59.425Z,33.63
2023-04-21T02:48:26.969Z,36.30
2023-04-21T02:50:53.744Z,33.05
2023-04-21T02:53:21.111Z,39.45
2023-04-21T02:55:48.180Z,39.67
2023-04-21T02:58:15.153Z,35.45
2023-04-21T03:00:41.878Z,33.40
2023-04-21T03:03:08.639Z,36.22
2023-04-21T03:05:35.403Z,38.40
2023-04-21T03:08:02.038Z,35.10
2023-04-21T03:10:28.687Z,35.72
2023-04-21T03:12:56.357Z,41.05
2023-04-21T03:15:23.048Z,39.30
2023-04-21T03:17:49.810Z,38.38
2023-04-21T03:20:17.107Z,45.05
2023-04-21T03:22:43.714Z,37.40
2023-04-21T03:25:11.421Z,38.13
2023-04-21T03:27:38.088Z,38.22
2023-04-21T03:30:05.472Z,39.35
2023-04-21T03:32:32.033Z,40.90
2023-04-21T03:34:58.675Z,38.85
2023-04-21T03:37:25.225Z,41.58
2023-04-21T03:39:51.873Z,43.40
2023-04-21T03:42:18.456Z,41.95
2023-04-21T03:44:44.983Z,42.63
2023-04-21T03:47:11.497Z,39.92
2023-04-21T03:49:38.128Z,38.45
2023-04-21T03:52:04.981Z,44.88
2023-04-21T03:54:31.534Z,45.05
2023-04-21T03:56:58.117Z,41.15
2023-04-21T03:59:24.678Z,43.05
2023-04-21T04:01:51.229Z,41.95
2023-04-21T04:04:17.902Z,45.33
2023-04-21T04:06:44.642Z,40.08
2023-04-21T04:09:11.257Z,45.30
2023-04-21T04:11:37.782Z,38.55
2023-04-21T04:14:04.290Z,41.38
2023-04-21T04:16:31.149Z,42.13
2023-04-21T04:18:57.780Z,44.78
2023-04-21T04:21:24.290Z,42.10
2023-04-21T04:23:54.159Z,45.72
2023-04-21T04:26:22.756Z,42.85
2023-04-21T04:28:49.360Z,44.03
2023-04-21T04:31:17.335Z,41.67
2023-04-21T04:33:44.341Z,48.97
2023-04-21T04:36:12.116Z,45.45
2023-04-21T04:38:38.772Z,46.78
2023-04-21T04:41:06.318Z,41.70
2023-04-21T04:43:41.964Z,41.70
2023-04-21T04:46:13.566Z,44.20
2023-04-21T04:48:40.748Z,45.40
2023-04-21T04:51:07.579Z,48.30
2023-04-21T04:53:34.233Z,41.22
2023-04-21T04:56:00.834Z,23.23
2023-04-21T04:58:27.420Z,32.20
2023-04-21T05:00:54.438Z,32.45
2023-04-21T05:03:21.227Z,27.52
2023-04-21T05:05:47.996Z,29.90
2023-04-21T05:08:16.497Z,29.08
2023-04-21T05:10:44.503Z,32.58
2023-04-21T05:13:11.090Z,32.60
2023-04-21T05:15:37.671Z,31.40
2023-04-21T05:18:04.358Z,36.70
2023-04-21T05:20:31.035Z,32.72
2023-04-21T05:22:57.647Z,31.08
2023-04-21T05:25:24.342Z,33.00
2023-04-21T05:27:50.997Z,34.13
2023-04-21T05:30:17.539Z,27.25
2023-04-21T05:32:44.424Z,29.88
2023-04-21T05:35:11.124Z,32.50
2023-04-21T05:37:37.700Z,29.92
2023-04-21T05:40:04.527Z,33.60
2023-04-21T05:42:31.255Z,31.90
2023-04-21T05:44:58.270Z,29.88
2023-04-21T05:47:24.947Z,29.63
2023-04-21T05:49:53.930Z,26.58
2023-04-21T05:52:23.753Z,27.48
2023-04-21T05:54:50.527Z,30.08
2023-04-21T05:57:17.938Z,28.95
2023-04-21T05:59:44.583Z,29.90
2023-04-21T06:02:12.234Z,28.13
2023-04-21T06:04:38.948Z,30.02
2023-04-21T06:07:07.338Z,29.45
2023-04-21T06:09:35.357Z,28.45
2023-04-21T06:12:02.767Z,27.17
2023-04-21T06:14:29.348Z,28.40
2023-04-21T06:16:56.058Z,30.02
2023-04-21T06:19:22.667Z,29.60
2023-04-21T06:21:49.292Z,30.13
2023-04-21T06:24:16.311Z,27.25
2023-04-21T06:26:42.976Z,24.35
2023-04-21T06:29:09.555Z,30.80
2023-04-21T06:31:36.195Z,26.73
2023-04-21T06:34:02.804Z,26.90
2023-04-21T06:36:29.407Z,27.95
2023-04-21T06:38:56.204Z,23.95
2023-04-21T06:41:24.715Z,25.60
2023-04-21T06:43:51.528Z,25.33
2023-04-21T06:46:18.438Z,22.83
2023-04-21T06:48:45.056Z,23.08
2023-04-21T06:51:11.654Z,25.25
2023-04-21T06:53:38.439Z,24.73
2023-04-21T06:56:05.289Z,22.05
2023-04-21T06:58:32.012Z,25.23
2023-04-21T07:00:59.742Z,23.23
2023-04-21T07:03:26.460Z,24.35
2023-04-21T07:05:53.231Z,24.48
2023-04-21T07:08:19.786Z,33.13
2023-04-21T07:10:46.407Z,24.13
2023-04-21T07:13:12.968Z,21.63
2023-04-21T07:15:39.608Z,22.20
2023-04-21T07:18:06.255Z,21.88
2023-04-21T07:20:32.810Z,24.73
2023-04-21T07:22:59.352Z,21.08
2023-04-21T07:25:26.196Z,18.33
2023-04-21T07:27:52.883Z,17.13
2023-04-21T07:30:19.722Z,20.25
2023-04-21T07:32:46.896Z,21.38
2023-04-21T07:35:13.854Z,18.15
2023-04-21T07:37:40.668Z,17.13
2023-04-21T07:40:08.984Z,16.48
2023-04-21T07:42:35.615Z,15.88
2023-04-21T07:45:02.730Z,12.95
2023-04-21T07:47:29.509Z,14.23
2023-04-21T07:49:56.436Z,12.43
2023-04-21T07:52:23.275Z,15.82
2023-04-21T07:54:50.641Z,15.32
2023-04-21T07:57:17.489Z,13.48
2023-04-21T07:59:44.383Z,13.02
2023-04-21T08:02:11.045Z,12.13
2023-04-21T08:04:38.138Z,11.40
2023-04-21T08:07:05.448Z,17.80
2023-04-21T08:09:32.248Z,12.77
2023-04-21T08:11:58.953Z,11.50
2023-04-21T08:14:26.952Z,10.07
2023-04-21T08:16:56.562Z,10.23
2023-04-21T08:19:23.664Z,10.35
2023-04-21T08:21:50.308Z,9.80
2023-04-21T08:24:16.958Z,11.80
2023-04-21T08:26:43.700Z,11.98
2023-04-21T08:29:10.834Z,9.73
2023-04-21T08:31:37.604Z,8.50
2023-04-21T08:34:04.415Z,9.48
2023-04-21T08:36:31.986Z,9.23
2023-04-21T08:38:59.362Z,10.25
2023-04-21T08:41:27.211Z,14.55
2023-04-21T08:43:54.027Z,11.75
2023-04-21T08:46:21.680Z,11.82
2023-04-21T08:48:48.286Z,9.73
2023-04-21T08:51:23.825Z,9.45
2023-04-21T08:53:50.617Z,10.75
2023-04-21T08:56:17.250Z,9.30
2023-04-21T08:58:43.805Z,14.25
2023-04-21T09:01:11.199Z,10.93
2023-04-21T09:03:38.393Z,9.95
2023-04-21T09:06:07.821Z,10.63
2023-04-21T09:08:38.122Z,11.50
2023-04-21T09:11:04.762Z,10.25
2023-04-21T09:13:36.989Z,9.82
2023-04-21T09:16:08.419Z,10.60
2023-04-21T09:18:40.177Z,8.38
2023-04-21T09:21:15.992Z,8.07
2023-04-21T09:23:47.362Z,14.90
2023-04-21T09:26:14.396Z,12.88
2023-04-21T09:28:42.993Z,9.73
2023-04-21T09:31:18.116Z,8.13
2023-04-21T09:33:57.561Z,8.02
2023-04-21T09:36:28.385Z,7.38
2023-04-21T09:39:12.862Z,10.00
2023-04-21T09:41:41.982Z,13.07
2023-04-21T09:44:08.680Z,9.60
2023-04-21T09:46:37.141Z,8.20
2023-04-21T09:49:04.940Z,8.73
2023-04-21T09:51:56.239Z,8.27
2023-04-21T09:54:29.764Z,10.60
2023-04-21T09:57:01.717Z,9.45
2023-04-21T09:59:40.786Z,12.65
2023-04-21T10:02:09.118Z,7.30
2023-04-21T10:04:38.659Z,8.85
2023-04-21T10:07:06.688Z,11.52
2023-04-21T10:09:54.827Z,8.65
2023-04-21T10:12:22.846Z,7.75
2023-04-21T10:14:56.377Z,7.50
2023-04-21T10:17:25.282Z,7.15
2023-04-21T10:19:59.761Z,9.25
2023-04-21T10:22:28.834Z,9.93
2023-04-21T10:24:57.033Z,9.27
2023-04-21T10:27:32.653Z,10.80
2023-04-21T10:29:59.773Z,8.70
2023-04-21T10:32:42.813Z,8.40
2023-04-21T10:35:17.929Z,8.98
2023-04-21T10:37:48.893Z,9.75
2023-04-21T10:40:44.258Z,8.43
2023-04-21T10:43:49.629Z,8.48
2023-04-21T10:46:37.359Z,6.82
2023-04-21T10:49:28.829Z,9.40
2023-04-21T10:51:58.514Z,6.68
2023-04-21T10:54:49.998Z,7.88
2023-04-21T10:57:18.796Z,9.03
2023-04-21T10:59:46.654Z,6.28
2023-04-21T11:02:15.143Z,7.07
2023-04-21T11:04:47.845Z,8.75
2023-04-21T11:07:20.010Z,7.53
2023-04-21T11:09:48.183Z,6.38
2023-04-21T11:12:17.964Z,7.50
2023-04-21T11:14:48.064Z,6.68
2023-04-21T11:17:20.212Z,4.47
2023-04-21T11:19:54.046Z,6.28
2023-04-21T11:22:26.452Z,5.13
2023-04-21T11:27:26.870Z,4.53
2023-04-21T11:29:53.520Z,5.38
2023-04-21T11:32:21.465Z,4.50
2023-04-21T11:34:48.197Z,4.72
2023-04-21T11:37:23.435Z,4.22
2023-04-21T11:39:50.081Z,3.55
2023-04-21T11:42:22.844Z,5.70
2023-04-21T11:44:49.421Z,4.78
2023-04-21T11:47:18.311Z,3.55
2023-04-21T11:49:50.578Z,5.90
2023-04-21T11:52:28.751Z,4.28
2023-04-21T11:55:06.539Z,3.70
2023-04-21T11:57:34.121Z,6.50
2023-04-21T12:00:08.866Z,3.25
2023-04-21T12:02:35.816Z,3.75
2023-04-21T12:05:04.445Z,5.50
2023-04-21T12:07:36.520Z,5.22
2023-04-21T12:15:04.587Z,2.95
2023-04-21T12:17:44.490Z,3.28
2023-04-21T12:20:12.025Z,3.45
2023-04-21T12:22:38.614Z,5.97
2023-04-21T12:25:05.892Z,4.90
2023-04-21T12:27:32.559Z,4.53
2023-04-21T12:29:59.064Z,5.43
2023-04-21T12:32:26.314Z,3.38
2023-04-21T12:34:52.996Z,2.92
2023-04-21T12:37:19.595Z,2.60
2023-04-21T12:39:46.147Z,4.63
2023-04-21T12:42:12.713Z,5.32
2023-04-21T12:44:39.576Z,6.85
2023-04-21T12:47:06.397Z,3.22
2023-04-21T12:49:32.969Z,4.18
2023-04-21T12:51:59.740Z,3.63
2023-04-21T12:54:26.299Z,2.95
2023-04-21T12:56:52.885Z,6.22
2023-04-21T12:59:19.457Z,4.57
2023-04-21T13:01:46.142Z,2.50
2023-04-21T13:04:13.105Z,4.70
2023-04-21T13:06:40.095Z,3.67
2023-04-21T13:09:06.843Z,5.28
2023-04-21T13:11:33.680Z,2.75
2023-04-21T13:14:00.299Z,2.42
2023-04-21T13:16:28.619Z,3.55
2023-04-21T13:18:56.793Z,3.00
2023-04-21T13:21:23.321Z,2.47
2023-04-21T13:23:49.936Z,2.67
2023-04-21T13:26:17.318Z,4.35
2023-04-21T13:28:44.080Z,2.55
2023-04-21T13:31:10.816Z,3.53
2023-04-21T13:33:37.880Z,2.30
2023-04-21T13:36:04.779Z,2.00
2023-04-21T13:38:32.156Z,2.22
2023-04-21T13:40:58.910Z,3.40
2023-04-21T13:43:25.603Z,1.92
2023-04-21T13:45:52.386Z,2.53
2023-04-21T13:48:24.153Z,2.83
2023-04-21T13:50:51.785Z,1.85
2023-04-21T13:53:20.645Z,2.33
2023-04-21T13:55:47.959Z,3.33
2023-04-21T13:58:16.836Z,1.45
2023-04-21T14:00:43.935Z,3.08
2023-04-21T14:03:11.675Z,4.43
2023-04-21T14:05:38.991Z,3.03
2023-04-21T14:08:06.117Z,2.10
2023-04-21T14:10:32.861Z,3.67
2023-04-21T14:12:59.492Z,2.72
2023-04-21T14:15:26.345Z,4.95
2023-04-21T14:17:53.638Z,2.55
2023-04-21T14:20:20.517Z,3.55
2023-04-21T14:22:47.341Z,2.55
2023-04-21T14:25:13.947Z,1.65
2023-04-21T14:27:40.465Z,4.75
2023-04-21T14:30:07.795Z,6.20
2023-04-21T14:32:34.411Z,10.10
2023-04-21T14:35:03.355Z,3.47
2023-04-21T14:37:30.244Z,6.25
2023-04-21T14:39:56.764Z,3.20
2023-04-21T14:42:23.418Z,3.20
2023-04-21T14:44:50.105Z,6.05
2023-04-21T14:47:16.835Z,7.82
2023-04-21T14:49:43.588Z,3.22
2023-04-21T14:52:10.205Z,4.63
2023-04-21T14:54:36.848Z,4.43
2023-04-21T14:57:19.009Z,2.10
2023-04-21T14:59:52.148Z,2.20
2023-04-21T15:02:19.601Z,1.83
2023-04-21T15:04:46.390Z,2.65
2023-04-21T15:07:13.528Z,4.25
2023-04-21T15:09:41.176Z,2.45
2023-04-21T15:12:07.756Z,6.00
2023-04-21T15:14:34.496Z,1.60
2023-04-21T15:17:01.213Z,7.93
2023-04-21T15:19:27.770Z,7.20
2023-04-21T15:21:54.310Z,2.92
2023-04-21T15:24:20.861Z,6.60
2023-04-21T15:26:47.400Z,3.30
2023-04-21T15:29:14.129Z,4.00
2023-04-21T15:31:41.101Z,6.40
2023-04-21T15:34:08.035Z,2.65
2023-04-21T15:36:34.661Z,3.08
2023-04-21T15:39:01.293Z,2.22
2023-04-21T15:41:29.610Z,1.15
2023-04-21T15:43:56.269Z,1.50
2023-04-21T15:46:23.066Z,1.95
2023-04-21T15:48:49.799Z,2.22
2023-04-21T15:51:16.706Z,3.05
2023-04-21T15:53:47.644Z,2.67
2023-04-21T15:56:17.846Z,1.57
2023-04-21T15:58:44.687Z,3.20
2023-04-21T16:01:11.578Z,4.38
2023-04-21T16:03:40.296Z,2.72
2023-04-21T16:06:07.599Z,2.33
2023-04-21T16:08:34.409Z,3.70
2023-04-21T16:11:01.317Z,1.98
2023-04-21T16:13:28.015Z,5.82
2023-04-21T16:15:54.630Z,4.00
2023-04-21T16:18:21.605Z,1.88
2023-04-21T16:20:48.394Z,3.15
2023-04-21T16:23:15.452Z,3.35
2023-04-21T16:25:42.760Z,2.10
2023-04-21T16:28:09.807Z,1.88
2023-04-21T16:30:36.621Z,2.15
2023-04-21T16:33:03.264Z,3.47
2023-04-21T16:35:29.955Z,3.97
2023-04-21T16:37:56.627Z,2.08
2023-04-21T16:40:24.328Z,2.75
2023-04-21T16:42:51.121Z,1.48
2023-04-21T16:45:17.789Z,2.45
2023-04-21T16:47:44.465Z,3.08
2023-04-21T16:50:11.391Z,2.15
2023-04-21T16:52:38.322Z,4.78
2023-04-21T16:55:05.356Z,3.72
2023-04-21T16:57:32.992Z,2.45
2023-04-21T16:59:59.744Z,3.85
2023-04-21T17:02:26.485Z,2.65
2023-04-21T17:04:53.206Z,1.75
2023-04-21T17:07:19.709Z,3.70
2023-04-21T17:09:46.488Z,2.08
2023-04-21T17:12:13.092Z,3.72
2023-04-21T17:14:40.380Z,1.85
2023-04-21T17:17:07.231Z,2.47
2023-04-21T17:19:33.974Z,1.50
2023-04-21T17:22:00.604Z,3.28
2023-04-21T17:24:29.546Z,1.58
2023-04-21T17:26:59.787Z,4.00
2023-04-21T17:29:26.999Z,4.25
2023-04-21T17:31:53.768Z,2.40
2023-04-21T17:34:20.504Z,2.65
2023-04-21T17:36:47.122Z,2.45
2023-04-21T17:39:14.147Z,1.67
2023-04-21T17:41:42.000Z,2.35
2023-04-21T17:44:08.615Z,3.10
2023-04-21T17:46:35.404Z,1.83
2023-04-21T17:49:02.048Z,5.07
2023-04-21T17:51:28.791Z,4.93
2023-04-21T17:53:55.328Z,38.53
2023-04-21T17:56:22.435Z,8.43
2023-04-21T17:58:48.959Z,19.77
2023-04-21T18:01:15.545Z,15.13
2023-04-21T18:03:43.333Z,11.48
2023-04-21T18:06:11.299Z,5.57
2023-04-21T18:08:38.388Z,6.35
2023-04-21T18:11:06.209Z,3.40
2023-04-21T18:13:32.721Z,21.63
2023-04-21T18:15:59.297Z,3.70
2023-04-21T18:18:26.230Z,12.75
2023-04-21T18:20:52.948Z,6.25
2023-04-21T18:23:19.478Z,3.67
2023-04-21T18:25:46.599Z,5.50
2023-04-21T18:28:13.422Z,3.58
2023-04-21T18:30:40.197Z,9.98
2023-04-21T18:33:06.984Z,6.35
2023-04-21T18:35:34.216Z,7.95
2023-04-21T18:38:01.228Z,3.53
2023-04-21T18:40:28.046Z,4.82
2023-04-21T18:42:54.694Z,4.97
2023-04-21T18:45:21.260Z,6.47
2023-04-21T18:47:47.816Z,4.50
2023-04-21T18:50:14.452Z,6.85
2023-04-21T18:52:41.245Z,3.90
2023-04-21T18:55:08.748Z,4.63
2023-04-21T18:57:35.417Z,3.67
2023-04-21T19:00:02.123Z,3.70
2023-04-21T19:02:30.041Z,4.03
2023-04-21T19:04:56.720Z,3.85
2023-04-21T19:07:23.225Z,4.38
2023-04-21T19:09:49.908Z,5.55
2023-04-21T19:12:16.522Z,4.68
2023-04-21T19:14:47.628Z,3.80
2023-04-21T19:17:15.124Z,3.53
2023-04-21T19:19:42.242Z,7.72
2023-04-21T19:22:08.767Z,4.18
2023-04-21T19:24:35.800Z,6.97
2023-04-21T19:27:03.778Z,6.03
2023-04-21T19:29:31.278Z,5.57
2023-04-21T19:31:58.674Z,7.70
2023-04-21T19:34:25.385Z,3.85
2023-04-21T19:36:52.911Z,3.28
2023-04-21T19:39:19.926Z,7.35
2023-04-21T19:41:46.474Z,4.20
2023-04-21T19:44:13.058Z,4.40
2023-04-21T19:46:42.847Z,3.80
2023-04-21T19:49:13.047Z,3.88
2023-04-21T19:51:41.065Z,4.82
2023-04-21T19:54:11.363Z,3.17
2023-04-21T19:56:39.476Z,6.53
2023-04-21T19:59:06.465Z,5.97
2023-04-21T20:01:33.987Z,7.38
2023-04-21T20:04:01.305Z,5.97
2023-04-21T20:06:28.737Z,4.35
2023-04-21T20:08:55.891Z,5.00
2023-04-21T20:11:23.308Z,4.00
2023-04-21T20:13:50.491Z,3.90
2023-04-21T20:16:20.205Z,5.97
2023-04-21T20:18:46.943Z,6.13
2023-04-21T20:21:13.586Z,7.38
2023-04-21T20:23:40.238Z,6.25
2023-04-21T20:26:06.739Z,4.93
2023-04-21T20:28:33.356Z,6.75
2023-04-21T20:31:00.125Z,4.55
2023-04-21T20:33:27.409Z,2.95
2023-04-21T20:35:54.069Z,9.13
2023-04-21T20:38:23.839Z,5.03
2023-04-21T20:40:52.426Z,4.78
2023-04-21T20:43:19.244Z,7.20
2023-04-21T20:45:47.488Z,4.43
2023-04-21T20:48:14.101Z,6.47
2023-04-21T20:50:42.224Z,6.35
2023-04-21T20:53:10.109Z,3.80
2023-04-21T20:55:36.797Z,4.32
2023-04-21T20:58:04.620Z,4.40
2023-04-21T21:00:33.038Z,5.15
2023-04-21T21:02:59.950Z,5.25
2023-04-21T21:05:30.521Z,6.15
2023-04-21T21:07:57.196Z,5.22
2023-04-21T21:10:23.778Z,4.78
2023-04-21T21:12:50.383Z,7.60
2023-04-21T21:15:17.052Z,6.97
2023-04-21T21:17:43.617Z,6.75
2023-04-21T21:20:10.807Z,5.88
2023-04-21T21:22:37.375Z,6.53
2023-04-21T21:25:04.114Z,6.60
2023-04-21T21:27:30.755Z,6.15
2023-04-21T21:29:57.272Z,7.72
2023-04-21T21:32:23.840Z,5.40
2023-04-21T21:34:52.156Z,9.00
2023-04-21T21:37:19.248Z,4.72
2023-04-21T21:39:45.786Z,6.85
2023-04-21T21:42:12.359Z,4.72
2023-04-21T21:44:38.961Z,7.22
2023-04-21T21:47:05.724Z,5.57
2023-04-21T21:49:32.560Z,6.82
2023-04-21T21:51:59.213Z,5.45
2023-04-21T21:54:25.908Z,7.38
2023-04-21T21:56:52.538Z,8.18
2023-04-21T21:59:19.168Z,6.00
2023-04-21T22:01:45.762Z,7.32
2023-04-21T22:04:12.442Z,9.93
2023-04-21T22:06:39.156Z,8.38
2023-04-21T22:09:06.297Z,6.45
2023-04-21T22:11:32.886Z,8.98
2023-04-21T22:14:07.993Z,7.75
2023-04-21T22:16:42.974Z,6.30
2023-04-21T22:19:10.567Z,5.65
2023-04-21T22:21:37.137Z,5.18
2023-04-21T22:24:04.014Z,5.57
2023-04-21T22:26:31.367Z,6.18
2023-04-21T22:28:57.887Z,6.82
2023-04-21T22:31:24.474Z,6.18
2023-04-21T22:33:51.046Z,10.25
2023-04-21T22:36:17.597Z,7.78
2023-04-21T22:38:45.733Z,6.80
2023-04-21T22:41:13.461Z,6.95
2023-04-21T22:43:39.982Z,5.63
2023-04-21T22:46:07.110Z,11.48
2023-04-21T22:48:36.194Z,9.57
2023-04-21T22:51:03.657Z,9.40
2023-04-21T22:53:30.865Z,8.35
2023-04-21T22:55:57.498Z,7.35
2023-04-21T22:58:24.517Z,7.20
2023-04-21T23:00:51.737Z,8.77
2023-04-21T23:03:18.531Z,7.85
2023-04-21T23:05:45.245Z,10.30
2023-04-21T23:08:11.894Z,8.27
2023-04-21T23:10:38.457Z,6.40
2023-04-21T23:13:05.338Z,9.18
2023-04-21T23:15:32.211Z,10.13
2023-04-21T23:17:58.915Z,10.73
2023-04-21T23:20:25.698Z,8.02
2023-04-21T23:22:52.401Z,10.85
2023-04-21T23:25:19.007Z,10.93
2023-04-21T23:27:45.665Z,9.50
2023-04-21T23:30:12.802Z,8.60
2023-04-21T23:32:39.641Z,8.00
2023-04-21T23:35:06.814Z,8.82
2023-04-21T23:37:33.655Z,7.18
2023-04-21T23:40:00.191Z,7.60
2023-04-21T23:42:26.765Z,9.52
2023-04-21T23:44:53.460Z,7.50
2023-04-21T23:47:20.559Z,8.18
2023-04-21T23:49:47.155Z,6.20
2023-04-21T23:52:14.975Z,7.82
2023-04-21T23:54:41.533Z,6.88
2023-04-21T23:57:08.144Z,8.13
2023-04-21T23:59:34.751Z,5.95
